Time;durP1;ratioP1;P1;durP2;ratioP2;P2;SDS_P1;SDS_P2;PMS_P1;PMS_P2;Temp;Humidity;BMP_temperature;BMP_pressure;BME280_temperature;BME280_humidity;BME280_pressure;Samples;Min_cycle;Max_cycle;Signal;HPM_P1;HPM_P2
2022/01/03 00:01:57;;;;;;;;;;;1.60;99.90;;;;;;5039703;28;19913;-74
2022/01/03 00:04:22;;;;;;;;;;;1.60;99.90;;;;;;5051623;28;20051;-74
2022/01/03 00:06:49;;;;;;;;;;;1.60;99.90;;;;;;5065267;28;20011;-74
2022/01/03 00:09:15;;;;;;;;;;;1.60;99.90;;;;;;5070896;28;20356;-74
2022/01/03 00:11:41;;;;;;;;;;;1.60;99.90;;;;;;5071806;28;20070;-74
2022/01/03 00:14:07;;;;;;;;;;;1.60;99.90;;;;;;5053306;28;20007;-74
2022/01/03 00:16:32;;;;;;;;;;;1.60;99.90;;;;;;5060423;28;19913;-73
2022/01/03 00:18:58;;;;;;;;;;;1.70;99.90;;;;;;5033329;28;19916;-73
2022/01/03 00:21:30;;;;;;;;;;;1.70;99.90;;;;;;5043108;28;19930;-73
2022/01/03 00:24:06;;;;;;;;;;;1.70;99.90;;;;;;5052935;28;19916;-73
2022/01/03 00:26:33;;;;;;;;;;;1.70;99.90;;;;;;5071470;28;19908;-74
2022/01/03 00:29:06;;;;;;;;;;;1.70;99.90;;;;;;5070741;28;19909;-74
2022/01/03 00:31:36;;;;;;;;;;;1.80;99.90;;;;;;5071400;28;19908;-74
2022/01/03 00:34:02;;;;;;;;;;;1.80;99.90;;;;;;5053069;28;20383;-72
2022/01/03 00:36:28;;;;;;;;;;;1.80;99.90;;;;;;5071171;28;20062;-71
2022/01/03 00:38:54;;;;;;;;;;;1.80;99.90;;;;;;5070852;28;20423;-71
2022/01/03 00:41:21;;;;;;;;;;;1.80;99.90;;;;;;5052836;28;19927;-72
2022/01/03 00:43:47;;;;;;;;;;;1.80;99.90;;;;;;5053139;28;19924;-72
2022/01/03 00:46:14;;;;;;;;;;;1.90;99.90;;;;;;5070856;28;19912;-72
2022/01/03 00:48:39;;;;;;;;;;;1.90;99.90;;;;;;5052715;28;20283;-74
2022/01/03 00:51:05;;;;;;;;;;;1.90;99.90;;;;;;5070867;28;19908;-71
2022/01/03 00:53:30;;;;;;;;;;;1.90;99.90;;;;;;5070901;28;19973;-72
2022/01/03 00:56:03;;;;;;;;;;;1.90;99.90;;;;;;5070925;28;19948;-73
2022/01/03 00:58:31;;;;;;;;;;;1.90;99.90;;;;;;5070541;28;19920;-71
2022/01/03 01:00:57;;;;;;;;;;;1.90;99.90;;;;;;5052366;28;19920;-72
2022/01/03 01:03:27;;;;;;;;;;;1.90;99.90;;;;;;5070778;28;19909;-72
2022/01/03 01:05:53;;;;;;;;;;;2.00;99.90;;;;;;5069825;28;20383;-72
2022/01/03 01:08:20;;;;;;;;;;;2.00;99.90;;;;;;5070484;28;19920;-73
2022/01/03 01:10:46;;;;;;;;;;;2.00;99.90;;;;;;5071053;28;19966;-73
2022/01/03 01:13:12;;;;;;;;;;;2.10;99.90;;;;;;5052820;28;19916;-73
2022/01/03 01:15:39;;;;;;;;;;;2.10;99.90;;;;;;5070299;28;20415;-73
2022/01/03 01:18:05;;;;;;;;;;;2.10;99.90;;;;;;5052574;28;19916;-72
2022/01/03 01:20:32;;;;;;;;;;;2.10;99.90;;;;;;5070117;28;20314;-73
2022/01/03 01:22:58;;;;;;;;;;;2.20;99.90;;;;;;5052538;28;19958;-72
2022/01/03 01:27:46;;;;;;;;;;;2.20;99.90;;;;;;5070183;28;19935;-72
2022/01/03 01:28:13;;;;;;;;;;;2.20;99.90;;;;;;5070657;28;19916;-74
2022/01/03 01:30:39;;;;;;;;;;;2.30;99.90;;;;;;5052045;28;19915;-73
2022/01/03 01:33:12;;;;;;;;;;;2.30;99.90;;;;;;5070890;28;19912;-71
2022/01/03 01:35:50;;;;;;;;;;;2.30;99.90;;;;;;5051396;28;20411;-72
2022/01/03 01:38:20;;;;;;;;;;;2.40;99.90;;;;;;5070008;28;19916;-73
2022/01/03 01:40:53;;;;;;;;;;;2.40;99.90;;;;;;5063516;28;19913;-72
2022/01/03 01:43:24;;;;;;;;;;;2.50;99.90;;;;;;5032347;28;20003;-72
2022/01/03 01:45:50;;;;;;;;;;;2.50;99.90;;;;;;5036949;28;19915;-72
2022/01/03 01:48:16;;;;;;;;;;;2.50;99.90;;;;;;5070071;28;20006;-72
2022/01/03 01:50:42;;;;;;;;;;;2.50;99.90;;;;;;5051970;28;20003;-72
2022/01/03 01:53:09;;;;;;;;;;;2.60;99.90;;;;;;5070361;28;20497;-74
2022/01/03 01:55:38;;;;;;;;;;;2.60;99.90;;;;;;5070212;28;19909;-73
2022/01/03 01:58:05;;;;;;;;;;;2.50;99.90;;;;;;5052256;28;20411;-73
2022/01/03 02:00:32;;;;;;;;;;;2.60;99.90;;;;;;5069383;28;20295;-73
2022/01/03 02:03:16;;;;;;;;;;;2.60;99.90;;;;;;5070446;28;20352;-73
2022/01/03 02:05:43;;;;;;;;;;;2.60;99.90;;;;;;5069541;28;20327;-73
2022/01/03 02:08:12;;;;;;;;;;;2.60;99.90;;;;;;5051667;28;20454;-72
2022/01/03 02:10:47;;;;;;;;;;;2.60;99.90;;;;;;5051551;28;19986;-74
2022/01/03 02:13:16;;;;;;;;;;;2.70;99.90;;;;;;5070308;28;19943;-73
2022/01/03 02:15:45;;;;;;;;;;;2.70;99.90;;;;;;5069461;28;19935;-73
2022/01/03 02:18:11;;;;;;;;;;;2.70;99.90;;;;;;5054173;28;19912;-73
2022/01/03 02:20:37;;;;;;;;;;;2.70;99.90;;;;;;5073214;28;19962;-72
2022/01/03 02:23:03;;;;;;;;;;;2.70;99.90;;;;;;5055689;28;20351;-71
2022/01/03 02:25:29;;;;;;;;;;;2.70;99.90;;;;;;5073044;28;19918;-73
2022/01/03 02:27:54;;;;;;;;;;;2.80;99.90;;;;;;5073340;28;19908;-73
2022/01/03 02:30:22;;;;;;;;;;;2.80;99.90;;;;;;5072586;28;19912;-72
2022/01/03 02:32:47;;;;;;;;;;;2.80;99.90;;;;;;5055421;28;19962;-73
2022/01/03 02:35:13;;;;;;;;;;;2.90;99.90;;;;;;5072948;28;19939;-72
2022/01/03 02:37:39;;;;;;;;;;;3.00;99.90;;;;;;5073298;28;20014;-71
2022/01/03 02:40:08;;;;;;;;;;;3.00;99.90;;;;;;5072655;28;19912;-70
2022/01/03 02:42:33;;;;;;;;;;;3.10;99.90;;;;;;5035326;28;19916;-69
2022/01/03 02:45:05;;;;;;;;;;;3.20;99.90;;;;;;5053255;28;19966;-72
2022/01/03 02:47:31;;;;;;;;;;;3.20;99.90;;;;;;5053532;28;19995;-72
2022/01/03 02:49:56;;;;;;;;;;;3.20;99.90;;;;;;5072740;28;20344;-71
2022/01/03 02:52:22;;;;;;;;;;;3.20;99.90;;;;;;5055054;28;20327;-71
2022/01/03 02:54:48;;;;;;;;;;;3.20;99.90;;;;;;5073221;28;19912;-71
2022/01/03 02:57:14;;;;;;;;;;;3.20;99.90;;;;;;5054327;28;19912;-71
2022/01/03 02:59:39;;;;;;;;;;;3.20;99.90;;;;;;5072362;28;19919;-72
2022/01/03 03:02:05;;;;;;;;;;;3.20;99.90;;;;;;5072293;28;20327;-71
2022/01/03 03:04:31;;;;;;;;;;;3.20;99.90;;;;;;5072821;28;19910;-71
2022/01/03 03:06:56;;;;;;;;;;;3.20;99.90;;;;;;5054076;28;19915;-70
2022/01/03 03:09:22;;;;;;;;;;;3.10;99.90;;;;;;5072373;28;19912;-71
2022/01/03 03:11:48;;;;;;;;;;;3.20;99.90;;;;;;5072175;28;19905;-72
2022/01/03 03:14:13;;;;;;;;;;;3.20;99.90;;;;;;5054708;28;20390;-72
2022/01/03 03:16:40;;;;;;;;;;;3.30;99.90;;;;;;5071859;28;19909;-72
2022/01/03 03:19:06;;;;;;;;;;;3.30;99.90;;;;;;5054372;28;20414;-72
2022/01/03 03:21:32;;;;;;;;;;;3.40;99.90;;;;;;5072843;28;19957;-73
2022/01/03 03:23:58;;;;;;;;;;;3.40;99.90;;;;;;5054703;28;19909;-73
2022/01/03 03:26:24;;;;;;;;;;;3.50;99.90;;;;;;5054091;28;19913;-73
2022/01/03 03:28:49;;;;;;;;;;;3.50;99.90;;;;;;5071725;28;19908;-73
2022/01/03 03:31:15;;;;;;;;;;;3.50;99.90;;;;;;5072422;28;19908;-72
2022/01/03 03:33:40;;;;;;;;;;;3.60;99.90;;;;;;5072901;28;19915;-73
2022/01/03 03:36:06;;;;;;;;;;;3.60;99.90;;;;;;5071449;28;19916;-72
2022/01/03 03:38:32;;;;;;;;;;;3.70;99.90;;;;;;5072214;28;19985;-72
2022/01/03 03:40:59;;;;;;;;;;;3.70;99.90;;;;;;5071549;28;20079;-73
2022/01/03 03:43:25;;;;;;;;;;;3.70;99.90;;;;;;5053970;28;20228;-71
2022/01/03 03:45:50;;;;;;;;;;;3.70;99.90;;;;;;5053784;28;20336;-71
2022/01/03 03:48:19;;;;;;;;;;;3.80;99.90;;;;;;5071779;28;20403;-73
2022/01/03 03:50:46;;;;;;;;;;;3.80;99.90;;;;;;5071756;28;19908;-73
2022/01/03 03:53:12;;;;;;;;;;;3.90;99.90;;;;;;5072298;28;19918;-73
2022/01/03 03:55:38;;;;;;;;;;;3.90;99.90;;;;;;5071434;28;19916;-73
2022/01/03 03:58:04;;;;;;;;;;;4.00;99.90;;;;;;5053666;28;19913;-71
2022/01/03 04:00:30;;;;;;;;;;;4.00;99.90;;;;;;5071023;28;19913;-70
2022/01/03 04:02:55;;;;;;;;;;;4.10;99.90;;;;;;5071843;28;19930;-71
2022/01/03 04:05:21;;;;;;;;;;;4.10;99.90;;;;;;5052244;28;20003;-72
2022/01/03 04:07:47;;;;;;;;;;;4.10;99.90;;;;;;5051604;28;19999;-71
2022/01/03 04:10:16;;;;;;;;;;;4.10;99.90;;;;;;5033202;28;20364;-71
2022/01/03 04:12:43;;;;;;;;;;;4.10;99.90;;;;;;5071580;28;19969;-71
2022/01/03 04:15:09;;;;;;;;;;;4.20;99.90;;;;;;5053587;28;19908;-71
2022/01/03 04:17:35;;;;;;;;;;;4.20;99.90;;;;;;5052712;28;19914;-72
2022/01/03 04:20:00;;;;;;;;;;;4.20;99.90;;;;;;5071081;28;19912;-72
2022/01/03 04:22:26;;;;;;;;;;;4.20;99.90;;;;;;5052857;28;19908;-71
2022/01/03 04:24:52;;;;;;;;;;;4.20;99.90;;;;;;5071235;28;19912;-73
2022/01/03 04:27:17;;;;;;;;;;;4.20;99.90;;;;;;5070951;28;20347;-74
2022/01/03 04:29:43;;;;;;;;;;;4.20;99.90;;;;;;5052794;28;19912;-75
2022/01/03 04:32:08;;;;;;;;;;;4.20;99.90;;;;;;5070734;28;20256;-72
2022/01/03 04:34:34;;;;;;;;;;;4.30;99.90;;;;;;5071156;28;19916;-72
2022/01/03 04:36:59;;;;;;;;;;;4.30;99.90;;;;;;5070725;28;20280;-72
2022/01/03 04:39:25;;;;;;;;;;;4.30;99.90;;;;;;5070278;28;19923;-73
2022/01/03 04:41:51;;;;;;;;;;;4.30;99.90;;;;;;5070295;28;19916;-72
2022/01/03 04:44:16;;;;;;;;;;;4.30;99.90;;;;;;5070483;28;20374;-71
2022/01/03 04:46:43;;;;;;;;;;;4.30;99.90;;;;;;5070570;28;19904;-72
2022/01/03 04:49:08;;;;;;;;;;;4.40;99.90;;;;;;5070587;28;19908;-72
2022/01/03 04:51:34;;;;;;;;;;;4.40;99.90;;;;;;5070687;28;20360;-73
2022/01/03 04:54:00;;;;;;;;;;;4.40;99.90;;;;;;5071168;28;19904;-72
2022/01/03 04:56:27;;;;;;;;;;;4.50;99.90;;;;;;5070674;28;20305;-73
2022/01/03 04:58:53;;;;;;;;;;;4.50;99.90;;;;;;5070666;28;19991;-73
2022/01/03 05:01:19;;;;;;;;;;;4.50;99.90;;;;;;5070234;28;19912;-74
2022/01/03 05:03:44;;;;;;;;;;;4.50;99.90;;;;;;5071116;28;20233;-74
2022/01/03 05:06:10;;;;;;;;;;;4.60;99.90;;;;;;5052379;28;19916;-74
2022/01/03 05:08:35;;;;;;;;;;;4.70;99.90;;;;;;5052561;28;19908;-72
2022/01/03 05:11:01;;;;;;;;;;;4.70;99.90;;;;;;5052611;28;19916;-73
2022/01/03 05:13:27;;;;;;;;;;;4.80;99.90;;;;;;5070924;28;19915;-73
2022/01/03 05:15:53;;;;;;;;;;;4.80;99.90;;;;;;5070029;28;19985;-73
2022/01/03 05:18:18;;;;;;;;;;;4.80;99.90;;;;;;5069992;28;19904;-72
2022/01/03 05:20:44;;;;;;;;;;;4.80;99.90;;;;;;5051714;28;20137;-72
2022/01/03 05:23:10;;;;;;;;;;;4.80;99.90;;;;;;5070534;28;20220;-71
2022/01/03 05:25:35;;;;;;;;;;;4.80;99.90;;;;;;5069783;28;19956;-71
2022/01/03 05:28:01;;;;;;;;;;;4.90;99.90;;;;;;5070043;28;19958;-71
2022/01/03 05:30:27;;;;;;;;;;;4.90;99.90;;;;;;5069497;28;19999;-72
2022/01/03 05:32:52;;;;;;;;;;;4.90;99.90;;;;;;5051800;28;19908;-71
2022/01/03 05:35:18;;;;;;;;;;;4.90;99.90;;;;;;5069763;28;20008;-71
2022/01/03 05:37:44;;;;;;;;;;;4.90;99.90;;;;;;5069969;28;20318;-70
2022/01/03 05:40:09;;;;;;;;;;;4.90;99.90;;;;;;5069350;28;19952;-71
2022/01/03 05:42:35;;;;;;;;;;;5.00;99.90;;;;;;5051448;28;19947;-70
2022/01/03 05:45:01;;;;;;;;;;;5.00;99.90;;;;;;5070034;28;19908;-71
2022/01/03 05:47:27;;;;;;;;;;;5.00;99.90;;;;;;5033030;28;20643;-71
2022/01/03 05:49:53;;;;;;;;;;;5.10;99.90;;;;;;5049335;28;19948;-72
2022/01/03 05:52:19;;;;;;;;;;;5.10;99.90;;;;;;5069348;28;20356;-72
2022/01/03 05:54:44;;;;;;;;;;;5.10;99.90;;;;;;5076466;28;19914;-71
2022/01/03 05:57:10;;;;;;;;;;;5.10;99.90;;;;;;5058028;28;19989;-72
2022/01/03 05:59:36;;;;;;;;;;;5.10;99.90;;;;;;5075771;28;19909;-73
2022/01/03 06:02:03;;;;;;;;;;;5.20;99.90;;;;;;5058125;28;19947;-73
2022/01/03 06:04:54;;;;;;;;;;;5.20;99.90;;;;;;5076463;28;20356;-72
2022/01/03 06:07:19;;;;;;;;;;;5.20;99.90;;;;;;5058038;28;19908;-71
2022/01/03 06:09:45;;;;;;;;;;;5.20;99.90;;;;;;5075378;28;20402;-71
2022/01/03 06:12:11;;;;;;;;;;;5.30;99.90;;;;;;5076200;28;20409;-72
2022/01/03 06:14:38;;;;;;;;;;;5.30;99.90;;;;;;5058231;28;19912;-71
2022/01/03 06:17:05;;;;;;;;;;;5.40;99.90;;;;;;5076085;28;19908;-72
2022/01/03 06:19:32;;;;;;;;;;;5.40;99.90;;;;;;5075683;28;20003;-72
2022/01/03 06:21:58;;;;;;;;;;;5.40;99.90;;;;;;5075905;28;19912;-71
2022/01/03 06:24:23;;;;;;;;;;;5.40;99.90;;;;;;5058132;28;19917;-73
2022/01/03 06:26:49;;;;;;;;;;;5.50;99.90;;;;;;5062492;28;20442;-72
2022/01/03 06:29:15;;;;;;;;;;;5.50;99.90;;;;;;5055574;28;19943;-72
2022/01/03 06:31:41;;;;;;;;;;;5.50;99.90;;;;;;5068298;28;19961;-72
2022/01/03 06:34:07;;;;;;;;;;;5.60;99.90;;;;;;5075976;28;19920;-72
2022/01/03 06:36:33;;;;;;;;;;;5.60;99.90;;;;;;5075851;28;19912;-74
2022/01/03 06:38:59;;;;;;;;;;;5.60;99.90;;;;;;5076150;28;19909;-71
2022/01/03 06:41:25;;;;;;;;;;;5.60;99.90;;;;;;5065166;28;19995;-72
2022/01/03 06:43:51;;;;;;;;;;;5.60;99.90;;;;;;5056398;28;20005;-72
2022/01/03 06:46:17;;;;;;;;;;;5.60;99.90;;;;;;5064768;28;20387;-72
2022/01/03 06:48:43;;;;;;;;;;;5.60;99.90;;;;;;5075674;28;19909;-71
2022/01/03 06:51:10;;;;;;;;;;;5.60;99.90;;;;;;5075682;28;20247;-71
2022/01/03 06:53:36;;;;;;;;;;;5.60;99.90;;;;;;5076454;28;19918;-73
2022/01/03 06:56:02;;;;;;;;;;;5.60;99.90;;;;;;5075551;28;19913;-73
2022/01/03 06:58:27;;;;;;;;;;;5.70;99.90;;;;;;5076083;28;20356;-72
2022/01/03 07:00:53;;;;;;;;;;;5.70;99.90;;;;;;5075511;28;20007;-72
2022/01/03 07:03:19;;;;;;;;;;;5.70;99.90;;;;;;5074729;28;20020;-71
2022/01/03 07:05:44;;;;;;;;;;;5.70;99.90;;;;;;5054050;28;19908;-72
2022/01/03 07:08:10;;;;;;;;;;;5.80;99.90;;;;;;5072604;28;19952;-73
2022/01/03 07:10:35;;;;;;;;;;;5.90;99.90;;;;;;5072451;28;19916;-72
2022/01/03 07:13:01;;;;;;;;;;;5.90;99.90;;;;;;5073021;28;19912;-71
2022/01/03 07:20:56;;;;;;;;;;;6.10;99.90;;;;;;5072058;28;19965;-72
2022/01/03 07:23:22;;;;;;;;;;;6.10;99.90;;;;;;5072763;28;19920;-73
2022/01/03 07:25:47;;;;;;;;;;;6.10;99.90;;;;;;5053384;28;19920;-73
2022/01/03 07:28:13;;;;;;;;;;;6.10;99.90;;;;;;5053934;28;19909;-73
2022/01/03 07:30:39;;;;;;;;;;;6.10;99.90;;;;;;5067964;28;19908;-72
2022/01/03 07:33:05;;;;;;;;;;;6.20;99.90;;;;;;5052707;28;19919;-72
2022/01/03 07:35:30;;;;;;;;;;;6.20;99.90;;;;;;5054568;28;19955;-71
2022/01/03 07:37:58;;;;;;;;;;;6.20;99.90;;;;;;5072506;28;19992;-72
2022/01/03 07:40:23;;;;;;;;;;;6.20;99.90;;;;;;5053172;28;19915;-72
2022/01/03 07:42:49;;;;;;;;;;;6.20;99.90;;;;;;5072205;28;20360;-72
2022/01/03 07:45:14;;;;;;;;;;;6.20;99.90;;;;;;5053263;28;19934;-72
2022/01/03 07:47:40;;;;;;;;;;;6.20;99.90;;;;;;5054289;28;20347;-72
2022/01/03 07:50:06;;;;;;;;;;;6.20;99.90;;;;;;5072073;28;19912;-71
2022/01/03 07:52:32;;;;;;;;;;;6.20;99.90;;;;;;5071469;28;20256;-72
2022/01/03 07:54:57;;;;;;;;;;;6.20;99.90;;;;;;5071840;28;19916;-72
2022/01/03 07:57:23;;;;;;;;;;;6.20;99.90;;;;;;5053372;28;19982;-73
2022/01/03 07:59:49;;;;;;;;;;;6.20;99.90;;;;;;5033372;28;19973;-73
2022/01/03 08:02:14;;;;;;;;;;;6.20;99.90;;;;;;5049881;28;20002;-72
2022/01/03 08:04:40;;;;;;;;;;;6.30;99.90;;;;;;5072009;28;20011;-73
2022/01/03 08:07:05;;;;;;;;;;;6.40;99.90;;;;;;5037530;28;19912;-73
2022/01/03 08:09:31;;;;;;;;;;;6.40;99.90;;;;;;5051317;28;20013;-74
2022/01/03 08:11:56;;;;;;;;;;;6.40;99.90;;;;;;5047663;28;19909;-73
2022/01/03 08:14:22;;;;;;;;;;;6.50;99.90;;;;;;5071915;28;19989;-73
2022/01/03 08:16:48;;;;;;;;;;;6.50;99.90;;;;;;5070617;28;20007;-73
2022/01/03 08:19:13;;;;;;;;;;;6.60;99.90;;;;;;5071006;28;19916;-74
2022/01/03 08:21:39;;;;;;;;;;;6.60;99.90;;;;;;5070774;28;19909;-73
2022/01/03 08:24:05;;;;;;;;;;;6.70;99.90;;;;;;5071560;28;19913;-73
2022/01/03 08:26:31;;;;;;;;;;;6.70;99.90;;;;;;5060097;28;20352;-72
2022/01/03 08:28:57;;;;;;;;;;;6.80;99.90;;;;;;5050772;28;19912;-73
2022/01/03 08:31:22;;;;;;;;;;;6.80;99.90;;;;;;5042970;28;19913;-73
2022/01/03 08:33:48;;;;;;;;;;;6.90;99.90;;;;;;5071703;28;19908;-73
2022/01/03 08:36:13;;;;;;;;;;;6.90;99.90;;;;;;5044246;28;19928;-73
2022/01/03 08:38:39;;;;;;;;;;;6.90;99.90;;;;;;5051189;28;20401;-73
2022/01/03 08:41:05;;;;;;;;;;;7.00;99.90;;;;;;5060050;28;20356;-73
2022/01/03 08:43:31;;;;;;;;;;;7.00;99.90;;;;;;5071131;28;19908;-73
2022/01/03 08:45:56;;;;;;;;;;;7.00;99.90;;;;;;5052356;28;20309;-73
2022/01/03 08:48:22;;;;;;;;;;;7.10;99.90;;;;;;5052871;28;19908;-73
2022/01/03 08:50:47;;;;;;;;;;;7.10;99.90;;;;;;5070899;28;19992;-74
2022/01/03 08:53:13;;;;;;;;;;;7.10;99.90;;;;;;5070651;28;20325;-74
2022/01/03 08:55:39;;;;;;;;;;;7.20;99.90;;;;;;5070730;28;20024;-74
2022/01/03 08:58:05;;;;;;;;;;;7.20;99.90;;;;;;5052955;28;19916;-74
2022/01/03 09:00:30;;;;;;;;;;;7.20;99.90;;;;;;5052340;28;19919;-74
2022/01/03 09:02:56;;;;;;;;;;;7.20;99.90;;;;;;5071091;28;19911;-74
2022/01/03 09:05:22;;;;;;;;;;;7.20;99.90;;;;;;5070723;28;19912;-74
2022/01/03 09:07:47;;;;;;;;;;;7.30;99.90;;;;;;5070697;28;19962;-74
2022/01/03 09:10:13;;;;;;;;;;;7.30;99.90;;;;;;5069949;28;19956;-74
2022/01/03 09:12:39;;;;;;;;;;;7.30;99.90;;;;;;5032321;28;19905;-74
2022/01/03 09:15:05;;;;;;;;;;;7.40;99.90;;;;;;5050575;28;19940;-74
2022/01/03 09:17:31;;;;;;;;;;;7.30;99.90;;;;;;5050200;28;20396;-73
2022/01/03 09:19:56;;;;;;;;;;;7.40;99.90;;;;;;5050162;28;20506;-73
2022/01/03 09:22:29;;;;;;;;;;;7.50;99.90;;;;;;5050035;28;19905;-72
2022/01/03 09:28:49;;;;;;;;;;;7.50;99.90;;;;;;5052497;28;19920;-73
2022/01/03 09:30:24;;;;;;;;;;;7.60;99.90;;;;;;5069703;28;19958;-74
2022/01/03 09:32:50;;;;;;;;;;;7.50;99.90;;;;;;5052258;28;19904;-73
2022/01/03 09:35:16;;;;;;;;;;;7.50;99.90;;;;;;5052192;28;20315;-73
2022/01/03 09:37:42;;;;;;;;;;;7.60;99.90;;;;;;5052042;28;20372;-73
2022/01/03 09:40:07;;;;;;;;;;;7.60;99.90;;;;;;5069911;28;19917;-73
2022/01/03 09:42:34;;;;;;;;;;;7.60;99.90;;;;;;5028854;28;19932;-72
2022/01/03 09:45:03;;;;;;;;;;;7.60;99.90;;;;;;5030303;28;19977;-73
2022/01/03 09:47:30;;;;;;;;;;;7.80;99.90;;;;;;5049005;28;20336;-75
2022/01/03 09:49:57;;;;;;;;;;;8.00;99.90;;;;;;5050140;28;20329;-73
2022/01/03 09:52:23;;;;;;;;;;;8.20;99.90;;;;;;5048198;28;19916;-73
2022/01/03 09:54:49;;;;;;;;;;;8.50;99.90;;;;;;5048821;28;19909;-73
2022/01/03 09:57:15;;;;;;;;;;;8.70;99.90;;;;;;5048376;28;19966;-72
2022/01/03 09:59:42;;;;;;;;;;;8.90;99.90;;;;;;5050109;28;19915;-73
2022/01/03 10:02:07;;;;;;;;;;;9.10;99.90;;;;;;5048387;28;20351;-73
2022/01/03 10:04:33;;;;;;;;;;;9.10;99.90;;;;;;5049533;28;19947;-72
2022/01/03 10:06:59;;;;;;;;;;;9.20;99.90;;;;;;5049596;28;19904;-73
2022/01/03 10:09:25;;;;;;;;;;;9.30;99.90;;;;;;5047796;28;19935;-73
2022/01/03 10:11:51;;;;;;;;;;;9.40;99.90;;;;;;5049481;28;20315;-73
2022/01/03 10:14:17;;;;;;;;;;;9.30;99.90;;;;;;5049554;28;19913;-73
2022/01/03 10:16:44;;;;;;;;;;;9.10;99.90;;;;;;5048365;28;19909;-73
2022/01/03 10:19:09;;;;;;;;;;;8.90;99.90;;;;;;5049288;28;20280;-74
2022/01/03 10:21:45;;;;;;;;;;;8.80;99.90;;;;;;5049518;28;19913;-74
2022/01/03 10:24:12;;;;;;;;;;;8.70;99.90;;;;;;5048256;28;19921;-73
2022/01/03 10:26:39;;;;;;;;;;;8.70;99.90;;;;;;5049490;28;20280;-74
2022/01/03 10:29:10;;;;;;;;;;;8.80;99.90;;;;;;5049445;28;20005;-73
2022/01/03 10:31:38;;;;;;;;;;;8.70;99.90;;;;;;5049409;28;19915;-73
2022/01/03 10:34:05;;;;;;;;;;;8.60;99.90;;;;;;5048181;28;19908;-73
2022/01/03 10:36:32;;;;;;;;;;;8.60;99.90;;;;;;5047925;28;20003;-74
2022/01/03 10:38:59;;;;;;;;;;;8.60;99.90;;;;;;5051556;28;19971;-74
2022/01/03 10:41:25;;;;;;;;;;;8.50;99.90;;;;;;5060803;28;20012;-73
2022/01/03 10:43:58;;;;;;;;;;;8.50;99.90;;;;;;5073173;28;20003;-73
2022/01/03 10:46:25;;;;;;;;;;;8.50;99.90;;;;;;5063265;28;19955;-71
2022/01/03 10:48:52;;;;;;;;;;;8.50;99.90;;;;;;5052961;28;19913;-74
2022/01/03 10:51:24;;;;;;;;;;;8.60;99.90;;;;;;5062572;28;19955;-73
2022/01/03 10:53:53;;;;;;;;;;;8.60;99.90;;;;;;5073561;28;20261;-75
2022/01/03 10:56:28;;;;;;;;;;;8.50;99.90;;;;;;5072949;28;19934;-73
2022/01/03 10:58:58;;;;;;;;;;;8.50;99.90;;;;;;5054930;28;19909;-72
2022/01/03 11:01:27;;;;;;;;;;;8.50;99.90;;;;;;5072400;28;19935;-73
2022/01/03 11:03:54;;;;;;;;;;;8.50;99.90;;;;;;5072805;28;20179;-73
2022/01/03 11:11:47;;;;;;;;;;;8.50;99.90;;;;;;5072979;28;19954;-73
2022/01/03 11:14:33;;;;;;;;;;;8.60;99.90;;;;;;5072755;28;19974;-73
2022/01/03 11:16:59;;;;;;;;;;;8.60;99.90;;;;;;5072354;28;20352;-72
2022/01/03 11:19:35;;;;;;;;;;;8.50;99.90;;;;;;5072466;28;20286;-72
2022/01/03 11:22:00;;;;;;;;;;;8.50;99.90;;;;;;5072418;28;19935;-73
2022/01/03 11:24:26;;;;;;;;;;;8.50;99.90;;;;;;5054482;28;20280;-72
2022/01/03 11:26:51;;;;;;;;;;;8.50;99.90;;;;;;5054432;28;19905;-73
2022/01/03 11:29:17;;;;;;;;;;;8.60;99.90;;;;;;5053946;28;19912;-73
2022/01/03 11:31:43;;;;;;;;;;;8.50;99.90;;;;;;5072460;28;19915;-73
2022/01/03 11:34:10;;;;;;;;;;;8.60;99.90;;;;;;5072953;28;19908;-73
2022/01/03 11:36:36;;;;;;;;;;;8.50;99.90;;;;;;5071684;28;19916;-73
2022/01/03 11:39:08;;;;;;;;;;;8.50;99.90;;;;;;5071610;28;20229;-77
2022/01/03 11:41:35;;;;;;;;;;;8.50;99.90;;;;;;5071386;28;19947;-74
2022/01/03 11:44:01;;;;;;;;;;;8.60;99.90;;;;;;5053899;28;19915;-73
2022/01/03 11:46:28;;;;;;;;;;;8.60;99.90;;;;;;5071690;28;19909;-73
2022/01/03 11:48:53;;;;;;;;;;;8.50;99.90;;;;;;5072113;28;19919;-75
2022/01/03 11:51:19;;;;;;;;;;;8.50;99.90;;;;;;5053037;28;20356;-74
2022/01/03 11:53:46;;;;;;;;;;;8.50;99.90;;;;;;5072541;28;19912;-74
2022/01/03 11:56:19;;;;;;;;;;;8.40;99.90;;;;;;5053632;28;19989;-73
2022/01/03 11:58:58;;;;;;;;;;;8.50;99.90;;;;;;5072168;28;20022;-73
2022/01/03 12:04:28;;;;;;;;;;;8.40;99.90;;;;;;5072045;28;19923;-72
2022/01/03 12:07:14;;;;;;;;;;;8.40;99.90;;;;;;5071746;28;20015;-73
2022/01/03 12:09:43;;;;;;;;;;;8.40;99.90;;;;;;5070506;28;19916;-73
2022/01/03 12:12:09;;;;;;;;;;;8.40;99.90;;;;;;5071517;28;19961;-73
2022/01/03 12:14:43;;;;;;;;;;;8.40;99.90;;;;;;5053877;28;20360;-74
2022/01/03 12:17:09;;;;;;;;;;;8.40;99.90;;;;;;5071026;28;20070;-72
2022/01/03 12:19:39;;;;;;;;;;;8.40;99.90;;;;;;5053090;28;19955;-73
2022/01/03 12:22:12;;;;;;;;;;;8.40;99.90;;;;;;5037590;28;20015;-72
2022/01/03 12:24:38;;;;;;;;;;;8.40;99.90;;;;;;5051030;28;19920;-72
2022/01/03 12:27:12;;;;;;;;;;;8.40;99.90;;;;;;5048180;28;19946;-73
2022/01/03 12:29:56;;;;;;;;;;;8.40;99.90;;;;;;5071256;28;19912;-73
2022/01/03 12:32:43;;;;;;;;;;;8.40;99.90;;;;;;5070956;28;20326;-73
2022/01/03 12:35:09;;;;;;;;;;;8.40;99.90;;;;;;5071027;28;20053;-73
2022/01/03 12:37:35;;;;;;;;;;;8.50;99.90;;;;;;5052041;28;20454;-74
2022/01/03 12:40:04;;;;;;;;;;;8.50;99.90;;;;;;5052673;28;19913;-73
2022/01/03 12:42:45;;;;;;;;;;;8.40;99.90;;;;;;5034793;28;19966;-74
2022/01/03 12:45:10;;;;;;;;;;;8.40;99.90;;;;;;5051243;28;20331;-74
2022/01/03 12:47:37;;;;;;;;;;;8.40;99.90;;;;;;5070738;28;19958;-74
2022/01/03 12:50:32;;;;;;;;;;;8.40;99.90;;;;;;5070539;28;19908;-74
2022/01/03 12:52:59;;;;;;;;;;;8.40;99.90;;;;;;5046577;28;19913;-73
2022/01/03 12:55:37;;;;;;;;;;;8.40;99.90;;;;;;5051922;28;20361;-73
2022/01/03 12:58:14;;;;;;;;;;;8.40;99.90;;;;;;5052999;28;19920;-73
2022/01/03 13:00:49;;;;;;;;;;;8.40;99.90;;;;;;5070335;28;19909;-72
2022/01/03 13:03:32;;;;;;;;;;;8.40;99.90;;;;;;5051982;28;20316;-74
2022/01/03 13:06:07;;;;;;;;;;;8.30;99.90;;;;;;5051810;28;20133;-74
2022/01/03 13:08:33;;;;;;;;;;;8.30;99.90;;;;;;5070621;28;19959;-72
2022/01/03 13:11:04;;;;;;;;;;;8.30;99.90;;;;;;5052053;28;20391;-74
2022/01/03 13:13:30;;;;;;;;;;;8.30;99.90;;;;;;5070292;28;20027;-73
2022/01/03 13:15:56;;;;;;;;;;;8.30;99.90;;;;;;5051532;28;20399;-74
2022/01/03 13:18:22;;;;;;;;;;;8.30;99.90;;;;;;5052118;28;19955;-73
2022/01/03 13:20:57;;;;;;;;;;;8.40;99.90;;;;;;5051803;28;20314;-73
2022/01/03 13:23:26;;;;;;;;;;;8.30;99.90;;;;;;5052131;28;19915;-74
2022/01/03 13:26:01;;;;;;;;;;;8.30;99.90;;;;;;5070088;28;20457;-74
2022/01/03 13:28:27;;;;;;;;;;;8.30;99.90;;;;;;5069814;28;19908;-74
2022/01/03 13:30:59;;;;;;;;;;;8.20;99.90;;;;;;5069840;28;20318;-73
2022/01/03 13:33:24;;;;;;;;;;;8.20;99.90;;;;;;5052348;28;19908;-73
2022/01/03 13:36:00;;;;;;;;;;;8.20;99.90;;;;;;5069768;28;19957;-73
2022/01/03 13:38:25;;;;;;;;;;;8.20;99.90;;;;;;5051389;28;19919;-74
2022/01/03 13:40:51;;;;;;;;;;;8.10;99.90;;;;;;5064929;28;19928;-74
2022/01/03 13:43:18;;;;;;;;;;;8.10;99.90;;;;;;5032208;28;20388;-74
2022/01/03 13:51:07;;;;;;;;;;;8.10;99.90;;;;;;5069985;28;19965;-75
2022/01/03 13:53:32;;;;;;;;;;;8.00;99.90;;;;;;5070453;28;20229;-74
2022/01/03 13:55:59;;;;;;;;;;;8.00;99.90;;;;;;5045673;28;20015;-73
2022/01/03 13:58:25;;;;;;;;;;;8.00;99.90;;;;;;5049833;28;20071;-73
2022/01/03 14:00:55;;;;;;;;;;;8.00;99.90;;;;;;5054710;28;19908;-73
2022/01/03 14:03:22;;;;;;;;;;;8.10;99.90;;;;;;5051399;28;19912;-74
2022/01/03 14:05:51;;;;;;;;;;;8.00;99.90;;;;;;5069688;28;20368;-74
2022/01/03 14:08:19;;;;;;;;;;;8.00;99.90;;;;;;5051222;28;20376;-74
2022/01/03 14:10:46;;;;;;;;;;;7.90;99.90;;;;;;5069356;28;19919;-75
2022/01/03 14:13:16;;;;;;;;;;;8.00;99.90;;;;;;5070998;28;19993;-73
2022/01/03 14:16:00;;;;;;;;;;;7.90;99.90;;;;;;5073552;28;19916;-73
2022/01/03 14:18:42;;;;;;;;;;;7.80;99.90;;;;;;5055208;28;19913;-74
2022/01/03 14:21:07;;;;;;;;;;;7.80;99.90;;;;;;5047573;28;19967;-74
2022/01/03 14:23:34;;;;;;;;;;;7.80;99.90;;;;;;5036029;28;19944;-74
2022/01/03 14:26:12;;;;;;;;;;;7.80;99.90;;;;;;5060310;28;19956;-73
2022/01/03 14:28:38;;;;;;;;;;;7.70;99.90;;;;;;5055305;28;20283;-72
2022/01/03 14:31:04;;;;;;;;;;;7.70;99.90;;;;;;5073083;28;20268;-73
2022/01/03 14:33:30;;;;;;;;;;;7.70;99.90;;;;;;5055281;28;19908;-74
2022/01/03 14:35:55;;;;;;;;;;;7.60;99.90;;;;;;5055068;28;19934;-74
2022/01/03 14:38:23;;;;;;;;;;;7.60;99.90;;;;;;5072793;28;19986;-74
2022/01/03 14:40:49;;;;;;;;;;;7.60;99.90;;;;;;5054692;28;19999;-74
2022/01/03 14:43:25;;;;;;;;;;;7.50;99.90;;;;;;5073497;28;20015;-74
2022/01/03 14:45:51;;;;;;;;;;;7.50;99.90;;;;;;5055173;28;19915;-74
2022/01/03 14:48:18;;;;;;;;;;;7.50;99.90;;;;;;5072576;28;19962;-73
2022/01/03 14:50:44;;;;;;;;;;;7.50;99.90;;;;;;5072634;28;19944;-74
2022/01/03 14:53:11;;;;;;;;;;;7.50;99.90;;;;;;5073327;28;20257;-73
2022/01/03 14:55:36;;;;;;;;;;;7.60;99.90;;;;;;5072983;28;19919;-74